createdAt,value
2023-03-27T00:01:16.904Z,79.61
2023-03-27T00:03:43.709Z,79.85
2023-03-27T00:06:16.334Z,80.43
2023-03-27T00:08:48.246Z,80.24
2023-03-27T00:11:15.270Z,80.68
2023-03-27T00:13:49.172Z,80.20
2023-03-27T00:16:27.508Z,80.33
2023-03-27T00:18:55.158Z,80.64
2023-03-27T00:21:22.534Z,80.48
2023-03-27T00:23:49.259Z,80.16
2023-03-27T00:26:16.118Z,80.25
2023-03-27T00:28:42.549Z,80.27
2023-03-27T00:31:16.036Z,80.10
2023-03-27T00:33:42.746Z,80.43
2023-03-27T00:36:10.238Z,80.21
2023-03-27T00:38:36.792Z,80.55
2023-03-27T00:41:03.296Z,80.48
2023-03-27T00:43:35.057Z,80.50
2023-03-27T00:46:27.590Z,80.70
2023-03-27T00:48:56.068Z,80.63
2023-03-27T00:51:26.526Z,80.93
2023-03-27T00:53:54.523Z,81.19
2023-03-27T00:56:21.793Z,81.39
2023-03-27T00:58:56.920Z,81.05
2023-03-27T01:01:27.173Z,81.51
2023-03-27T01:03:54.338Z,81.55
2023-03-27T01:06:22.295Z,81.79
2023-03-27T01:08:48.974Z,82.19
2023-03-27T01:11:15.402Z,82.45
2023-03-27T01:13:50.723Z,82.02
2023-03-27T01:16:31.880Z,82.51
2023-03-27T01:19:13.329Z,82.98
2023-03-27T01:21:57.992Z,83.22
2023-03-27T01:25:08.081Z,83.12
2023-03-27T01:27:49.739Z,83.31
2023-03-27T01:30:21.187Z,83.44
2023-03-27T01:33:21.497Z,83.70
2023-03-27T01:35:53.932Z,83.61
2023-03-27T01:39:05.230Z,83.32
2023-03-27T01:41:43.517Z,82.97
2023-03-27T01:44:16.637Z,83.46
2023-03-27T01:46:51.220Z,83.55
2023-03-27T01:49:24.586Z,83.77
2023-03-27T01:51:57.761Z,83.91
2023-03-27T01:54:29.533Z,84.09
2023-03-27T01:57:04.191Z,84.17
2023-03-27T01:59:36.547Z,84.19
2023-03-27T02:02:13.136Z,84.87
2023-03-27T02:05:03.968Z,84.82
2023-03-27T02:07:34.866Z,84.97
2023-03-27T02:10:08.235Z,85.04
2023-03-27T02:12:39.593Z,84.88
2023-03-27T02:15:22.539Z,84.87
2023-03-27T02:17:57.405Z,84.64
2023-03-27T02:20:24.140Z,85.20
2023-03-27T02:22:50.643Z,84.35
2023-03-27T02:25:28.038Z,84.43
2023-03-27T02:28:03.248Z,84.96
2023-03-27T02:30:42.922Z,85.06
2023-03-27T02:33:18.251Z,85.13
2023-03-27T02:35:47.419Z,85.02
2023-03-27T02:38:41.383Z,85.13
2023-03-27T02:41:13.795Z,84.97
2023-03-27T02:44:13.899Z,85.79
2023-03-27T02:46:45.935Z,85.76
2023-03-27T02:49:19.988Z,85.48
2023-03-27T02:51:52.970Z,85.83
2023-03-27T02:54:25.940Z,85.58
2023-03-27T02:56:57.767Z,85.02
2023-03-27T02:59:35.679Z,85.46
2023-03-27T03:02:14.212Z,86.07
2023-03-27T03:04:46.693Z,86.01
2023-03-27T03:07:14.315Z,86.05
2023-03-27T03:09:41.378Z,86.25
2023-03-27T03:12:08.587Z,86.24
2023-03-27T03:14:37.960Z,86.82
2023-03-27T03:17:04.372Z,86.54
2023-03-27T03:19:31.034Z,86.93
2023-03-27T03:21:57.425Z,86.16
2023-03-27T03:24:24.003Z,86.76
2023-03-27T03:26:50.675Z,86.44
2023-03-27T03:29:19.040Z,86.37
2023-03-27T03:31:45.873Z,86.79
2023-03-27T03:34:18.347Z,86.79
2023-03-27T03:36:49.198Z,86.49
2023-03-27T03:39:17.291Z,86.68
2023-03-27T03:41:43.689Z,87.29
2023-03-27T03:44:10.480Z,87.99
2023-03-27T03:46:37.123Z,87.65
2023-03-27T03:49:04.939Z,87.53
2023-03-27T03:51:32.426Z,87.59
2023-03-27T03:53:58.971Z,88.06
2023-03-27T03:56:27.752Z,87.54
2023-03-27T03:58:54.248Z,88.06
2023-03-27T04:01:20.815Z,88.22
2023-03-27T04:03:48.632Z,88.16
2023-03-27T04:06:17.631Z,87.45
2023-03-27T04:08:47.470Z,87.36
2023-03-27T04:11:13.916Z,87.75
2023-03-27T04:13:40.470Z,88.42
2023-03-27T04:16:08.070Z,88.81
2023-03-27T04:18:35.375Z,87.92
2023-03-27T04:21:02.407Z,88.87
2023-03-27T04:23:31.487Z,89.53
2023-03-27T04:26:03.327Z,89.73
2023-03-27T04:28:34.414Z,90.10
2023-03-27T04:31:06.405Z,90.06
2023-03-27T04:33:34.418Z,89.75
2023-03-27T04:36:06.638Z,90.50
2023-03-27T04:38:36.697Z,90.36
2023-03-27T04:41:03.755Z,89.87
2023-03-27T04:43:30.787Z,90.95
2023-03-27T04:45:57.281Z,90.36
2023-03-27T04:48:23.751Z,89.96
2023-03-27T04:50:50.241Z,90.40
2023-03-27T04:53:20.621Z,90.66
2023-03-27T04:55:50.980Z,90.21
2023-03-27T04:58:18.536Z,90.75
2023-03-27T05:00:50.378Z,91.11
2023-03-27T05:03:20.624Z,91.31
2023-03-27T05:05:49.520Z,91.36
2023-03-27T05:08:16.764Z,91.72
2023-03-27T05:10:44.603Z,92.00
2023-03-27T05:13:11.597Z,91.11
2023-03-27T05:15:39.126Z,91.98
2023-03-27T05:18:07.659Z,91.51
2023-03-27T05:20:35.497Z,92.06
2023-03-27T05:23:02.058Z,92.09
2023-03-27T05:25:28.958Z,92.82
2023-03-27T05:27:55.554Z,92.43
2023-03-27T05:30:23.952Z,92.61
2023-03-27T05:32:52.571Z,92.46
2023-03-27T05:35:21.537Z,92.41
2023-03-27T05:37:49.847Z,92.34
2023-03-27T05:40:17.668Z,91.75
2023-03-27T05:42:45.380Z,91.97
2023-03-27T05:45:13.293Z,91.86
2023-03-27T05:47:56.654Z,91.68
2023-03-27T05:50:25.426Z,91.87
2023-03-27T05:53:03.582Z,91.75
2023-03-27T05:55:31.936Z,90.95
2023-03-27T05:57:58.449Z,91.43
2023-03-27T06:00:26.306Z,91.38
2023-03-27T06:02:57.732Z,91.12
2023-03-27T06:05:26.410Z,90.52
2023-03-27T06:07:52.955Z,90.64
2023-03-27T06:10:22.487Z,90.77
2023-03-27T06:12:49.238Z,90.49
2023-03-27T06:15:16.310Z,89.84
2023-03-27T06:17:43.809Z,89.74
2023-03-27T06:20:12.655Z,89.62
2023-03-27T06:22:46.170Z,89.47
2023-03-27T06:25:13.447Z,89.70
2023-03-27T06:27:46.406Z,90.07
2023-03-27T06:30:17.220Z,88.59
2023-03-27T06:32:52.071Z,88.42
2023-03-27T06:35:19.728Z,88.00
2023-03-27T06:37:50.741Z,86.44
2023-03-27T06:40:22.850Z,85.15
2023-03-27T06:42:58.183Z,84.70
2023-03-27T06:45:28.426Z,84.02
2023-03-27T06:48:16.032Z,81.41
2023-03-27T06:50:45.257Z,79.15
2023-03-27T06:53:25.856Z,76.37
2023-03-27T06:55:54.254Z,74.25
2023-03-27T06:58:21.812Z,70.95
2023-03-27T07:00:50.350Z,68.48
2023-03-27T07:03:18.973Z,68.92
2023-03-27T07:05:45.647Z,67.64
2023-03-27T07:10:50.610Z,69.37
2023-03-27T07:13:23.142Z,66.93
2023-03-27T07:15:49.540Z,61.74
2023-03-27T07:18:16.334Z,61.20
2023-03-27T07:20:44.757Z,58.41
2023-03-27T07:23:11.601Z,60.36
2023-03-27T07:25:38.115Z,60.68
2023-03-27T07:28:10.062Z,59.56
2023-03-27T07:30:37.553Z,61.80
2023-03-27T07:33:07.272Z,57.02
2023-03-27T07:35:34.009Z,57.76
2023-03-27T07:38:03.136Z,57.43
2023-03-27T07:40:39.391Z,54.57
2023-03-27T07:43:07.271Z,55.85
2023-03-27T07:45:35.006Z,54.04
2023-03-27T07:48:09.863Z,55.28
2023-03-27T07:50:37.748Z,57.05
2023-03-27T07:53:06.280Z,54.32
2023-03-27T07:55:33.496Z,56.21
2023-03-27T07:58:02.994Z,57.21
2023-03-27T08:00:31.432Z,55.74
2023-03-27T08:03:11.930Z,53.21
2023-03-27T08:05:38.601Z,55.28
2023-03-27T08:08:05.430Z,56.30
2023-03-27T08:10:32.331Z,59.50
2023-03-27T08:12:58.875Z,58.45
2023-03-27T08:15:25.553Z,61.16
2023-03-27T08:17:54.647Z,59.33
2023-03-27T08:20:23.127Z,59.67
2023-03-27T08:22:52.936Z,57.95
2023-03-27T08:25:22.393Z,59.84
2023-03-27T08:27:49.462Z,58.97
2023-03-27T08:30:17.222Z,59.79
2023-03-27T08:32:44.414Z,56.93
2023-03-27T08:35:12.112Z,60.72
2023-03-27T08:37:38.691Z,59.44
2023-03-27T08:40:12.578Z,58.10
2023-03-27T08:42:42.593Z,55.51
2023-03-27T08:45:20.788Z,54.52
2023-03-27T08:47:54.561Z,56.09
2023-03-27T08:50:38.466Z,54.37
2023-03-27T08:53:11.824Z,55.03
2023-03-27T08:55:43.205Z,54.75
2023-03-27T08:58:20.049Z,56.12
2023-03-27T09:01:06.993Z,53.13
2023-03-27T09:04:08.867Z,52.70
2023-03-27T09:06:48.161Z,53.86
2023-03-27T09:09:49.856Z,53.24
2023-03-27T09:12:41.967Z,52.88
2023-03-27T09:15:11.177Z,55.63
2023-03-27T09:17:43.826Z,56.46
2023-03-27T09:20:23.468Z,55.73
2023-03-27T09:23:21.733Z,57.57
2023-03-27T09:25:53.494Z,56.34
2023-03-27T09:28:39.875Z,56.52
2023-03-27T09:31:35.887Z,58.68
2023-03-27T09:34:05.697Z,55.98
2023-03-27T09:36:32.772Z,56.09
2023-03-27T09:39:08.147Z,56.40
2023-03-27T09:41:42.305Z,56.66
2023-03-27T09:44:14.567Z,56.56
2023-03-27T09:46:48.914Z,54.28
2023-03-27T09:49:19.859Z,56.46
2023-03-27T09:51:51.253Z,55.38
2023-03-27T09:54:21.012Z,54.46
2023-03-27T09:56:57.870Z,54.62
2023-03-27T09:59:29.386Z,54.47
2023-03-27T10:02:08.095Z,55.79
2023-03-27T10:04:35.705Z,54.10
2023-03-27T10:07:07.958Z,52.85
2023-03-27T10:09:36.898Z,54.03
2023-03-27T10:12:07.276Z,54.42
2023-03-27T10:14:38.364Z,55.29
2023-03-27T10:17:05.956Z,57.00
2023-03-27T10:19:37.027Z,56.55
2023-03-27T10:22:16.527Z,55.97
2023-03-27T10:24:46.621Z,54.87
2023-03-27T10:27:20.502Z,53.22
2023-03-27T10:29:46.945Z,54.79
2023-03-27T10:32:13.871Z,51.95
2023-03-27T10:35:00.739Z,52.45
2023-03-27T10:37:30.899Z,52.81
2023-03-27T10:40:02.208Z,54.31
2023-03-27T10:42:32.227Z,52.08
2023-03-27T10:44:59.680Z,52.92
2023-03-27T10:47:35.342Z,54.30
2023-03-27T10:50:08.145Z,54.94
2023-03-27T10:52:37.402Z,55.30
2023-03-27T10:55:12.729Z,53.40
2023-03-27T10:57:42.077Z,53.45
2023-03-27T11:00:21.093Z,52.08
2023-03-27T11:02:57.586Z,51.17
2023-03-27T11:05:30.253Z,53.57
2023-03-27T11:08:05.704Z,50.66
2023-03-27T11:10:39.568Z,52.19
2023-03-27T11:13:15.234Z,51.06
2023-03-27T11:15:48.353Z,51.46
2023-03-27T11:18:21.100Z,52.77
2023-03-27T11:20:56.583Z,55.20
2023-03-27T11:23:40.846Z,56.42
2023-03-27T11:26:11.097Z,57.18
2023-03-27T11:29:01.945Z,57.04
2023-03-27T11:31:40.894Z,53.02
2023-03-27T11:34:28.818Z,56.08
2023-03-27T11:37:17.346Z,58.82
2023-03-27T11:39:53.165Z,59.44
2023-03-27T11:42:24.237Z,60.09
2023-03-27T11:44:53.068Z,62.76
2023-03-27T11:47:34.688Z,64.10
2023-03-27T11:50:23.455Z,66.65
2023-03-27T11:53:14.795Z,69.09
2023-03-27T11:56:00.385Z,69.82
2023-03-27T11:58:39.012Z,70.46
2023-03-27T12:01:17.901Z,70.63
2023-03-27T12:04:10.959Z,71.08
2023-03-27T12:06:51.139Z,71.22
2023-03-27T12:09:57.029Z,69.10
2023-03-27T12:12:33.107Z,69.18
2023-03-27T12:15:14.730Z,67.51
2023-03-27T12:17:47.135Z,66.59
2023-03-27T12:20:26.814Z,66.71
2023-03-27T12:23:01.505Z,67.31
2023-03-27T12:26:15.700Z,64.63
2023-03-27T12:28:54.319Z,64.11
2023-03-27T12:31:39.743Z,64.20
2023-03-27T12:34:19.561Z,64.44
2023-03-27T12:36:48.245Z,61.65
2023-03-27T12:39:20.129Z,62.27
2023-03-27T12:41:46.954Z,59.88
2023-03-27T12:44:17.131Z,58.47
2023-03-27T12:46:43.864Z,57.98
2023-03-27T12:49:13.605Z,57.34
2023-03-27T12:52:04.219Z,57.95
2023-03-27T12:54:31.817Z,59.33
2023-03-27T12:57:18.286Z,63.74
2023-03-27T12:59:47.912Z,68.05
2023-03-27T13:02:49.860Z,68.61
2023-03-27T13:05:31.377Z,69.23
2023-03-27T13:08:10.208Z,69.30
2023-03-27T13:10:58.594Z,69.23
2023-03-27T13:13:37.919Z,69.82
2023-03-27T13:16:16.806Z,68.01
2023-03-27T13:18:55.503Z,63.57
2023-03-27T13:22:18.735Z,62.48
2023-03-27T13:25:17.174Z,62.89
2023-03-27T13:28:08.581Z,61.72
2023-03-27T13:31:02.078Z,59.92
2023-03-27T13:33:31.476Z,57.41
2023-03-27T13:35:58.104Z,58.06
2023-03-27T13:38:53.134Z,57.04
2023-03-27T13:41:44.565Z,53.96
2023-03-27T13:44:34.027Z,53.42
2023-03-27T13:47:28.615Z,51.25
2023-03-27T13:50:16.894Z,48.48
2023-03-27T13:53:02.375Z,50.74
2023-03-27T13:56:04.005Z,52.51
2023-03-27T13:58:33.352Z,50.95
2023-03-27T14:01:25.207Z,51.23
2023-03-27T14:04:23.746Z,49.78
2023-03-27T14:07:08.462Z,50.73
2023-03-27T14:09:47.345Z,51.63
2023-03-27T14:12:20.439Z,54.25
2023-03-27T14:15:16.302Z,60.46
2023-03-27T14:17:55.576Z,62.53
2023-03-27T14:20:27.313Z,63.33
2023-03-27T14:23:12.873Z,63.22
2023-03-27T14:25:45.566Z,62.40
2023-03-27T14:28:31.714Z,59.13
2023-03-27T14:31:03.198Z,59.10
2023-03-27T14:33:29.780Z,56.82
2023-03-27T14:36:03.785Z,55.97
2023-03-27T14:38:34.263Z,57.60
2023-03-27T14:41:04.337Z,55.48
2023-03-27T14:43:31.822Z,54.24
2023-03-27T14:46:04.890Z,54.52
2023-03-27T14:48:37.286Z,56.36
2023-03-27T14:51:09.768Z,58.28
2023-03-27T14:53:43.970Z,65.88
2023-03-27T14:56:25.010Z,67.99
2023-03-27T14:58:55.323Z,68.67
2023-03-27T15:01:22.185Z,68.48
2023-03-27T15:03:51.094Z,69.01
2023-03-27T15:06:29.221Z,68.76
2023-03-27T15:08:59.684Z,69.40
2023-03-27T15:11:39.028Z,69.80
2023-03-27T15:14:12.986Z,70.64
2023-03-27T15:16:41.281Z,70.19
2023-03-27T15:19:23.866Z,70.04
2023-03-27T15:22:04.012Z,70.71
2023-03-27T15:24:39.631Z,69.76
2023-03-27T15:27:17.102Z,69.03
2023-03-27T15:29:49.520Z,66.86
2023-03-27T15:32:22.027Z,65.27
2023-03-27T15:34:56.673Z,65.43
2023-03-27T15:37:25.569Z,66.32
2023-03-27T15:40:14.432Z,65.97
2023-03-27T15:42:51.580Z,63.27
2023-03-27T15:45:34.017Z,63.43
2023-03-27T15:48:02.825Z,62.74
2023-03-27T15:50:29.395Z,64.14
2023-03-27T15:52:58.092Z,64.76
2023-03-27T15:55:32.509Z,65.11
2023-03-27T15:58:00.212Z,65.00
2023-03-27T16:00:28.865Z,64.60
2023-03-27T16:02:55.782Z,63.97
2023-03-27T16:05:22.724Z,60.64
2023-03-27T16:07:49.296Z,61.80
2023-03-27T16:10:32.690Z,58.62
2023-03-27T16:13:02.959Z,57.17
2023-03-27T16:15:30.961Z,57.11
2023-03-27T16:18:01.237Z,58.57
2023-03-27T16:20:28.070Z,58.08
2023-03-27T16:22:54.463Z,59.62
2023-03-27T16:25:20.877Z,58.13
2023-03-27T16:27:54.968Z,57.89
2023-03-27T16:30:24.436Z,57.55
2023-03-27T16:32:51.098Z,58.30
2023-03-27T16:35:18.321Z,58.87
2023-03-27T16:37:45.931Z,59.03
2023-03-27T16:40:12.444Z,59.31
2023-03-27T16:42:39.020Z,60.25
2023-03-27T16:45:06.150Z,60.70
2023-03-27T16:47:32.672Z,61.13
2023-03-27T16:50:10.734Z,61.42
2023-03-27T16:52:40.367Z,61.69
2023-03-27T16:55:08.010Z,60.74
2023-03-27T16:57:35.118Z,58.42
2023-03-27T17:00:01.613Z,59.12
2023-03-27T17:02:28.808Z,57.12
2023-03-27T17:04:55.508Z,56.20
2023-03-27T17:07:22.104Z,57.32
2023-03-27T17:09:48.519Z,57.12
2023-03-27T17:12:15.030Z,58.01
2023-03-27T17:14:42.705Z,58.05
2023-03-27T17:17:09.235Z,59.14
2023-03-27T17:19:35.871Z,58.82
2023-03-27T17:22:02.300Z,59.64
2023-03-27T17:24:28.803Z,59.25
2023-03-27T17:26:55.331Z,59.42
2023-03-27T17:29:21.908Z,60.56
2023-03-27T17:31:48.486Z,61.40
2023-03-27T17:34:15.312Z,62.55
2023-03-27T17:36:47.472Z,63.23
2023-03-27T17:39:18.929Z,63.90
2023-03-27T17:41:45.519Z,64.25
2023-03-27T17:44:12.721Z,64.06
2023-03-27T17:46:39.231Z,63.00
2023-03-27T17:49:05.784Z,62.78
2023-03-27T17:51:32.322Z,62.83
2023-03-27T17:53:58.872Z,63.12
2023-03-27T17:56:25.459Z,63.10
2023-03-27T17:58:51.892Z,63.16
2023-03-27T18:01:21.016Z,62.63
2023-03-27T18:03:47.992Z,62.59
2023-03-27T18:06:17.419Z,62.40
2023-03-27T18:08:44.811Z,62.63
2023-03-27T18:11:13.625Z,62.96
2023-03-27T18:13:40.289Z,63.14
2023-03-27T18:16:10.406Z,63.52
2023-03-27T18:18:38.937Z,63.53
2023-03-27T18:21:06.259Z,63.89
2023-03-27T18:23:34.781Z,64.37
2023-03-27T18:26:08.366Z,64.62
2023-03-27T18:28:35.790Z,65.03
2023-03-27T18:31:05.200Z,65.22
2023-03-27T18:33:31.847Z,65.49
2023-03-27T18:35:58.651Z,65.61
2023-03-27T18:38:27.419Z,65.78
2023-03-27T18:40:59.773Z,66.49
2023-03-27T18:43:26.612Z,66.87
2023-03-27T18:45:58.284Z,67.65
2023-03-27T18:48:26.222Z,67.95
2023-03-27T18:50:57.824Z,68.24
2023-03-27T18:53:24.476Z,67.85
2023-03-27T18:55:52.159Z,67.34
2023-03-27T18:58:19.408Z,67.48
2023-03-27T19:00:46.032Z,68.58
2023-03-27T19:03:15.553Z,68.28
2023-03-27T19:05:42.143Z,68.58
2023-03-27T19:08:08.656Z,68.74
2023-03-27T19:10:35.806Z,68.64
2023-03-27T19:13:02.640Z,68.34
2023-03-27T19:15:29.528Z,68.67
2023-03-27T19:17:56.468Z,69.08
2023-03-27T19:20:23.156Z,69.50
2023-03-27T19:22:49.895Z,69.63
2023-03-27T19:25:16.732Z,69.89
2023-03-27T19:27:43.713Z,69.75
2023-03-27T19:30:11.796Z,70.39
2023-03-27T19:32:39.012Z,70.17
2023-03-27T19:35:06.153Z,69.84
2023-03-27T19:37:33.008Z,69.78
2023-03-27T19:39:59.770Z,70.33
2023-03-27T19:42:28.397Z,70.08
2023-03-27T19:44:55.502Z,70.29
2023-03-27T19:47:22.392Z,70.74
2023-03-27T19:49:48.957Z,69.90
2023-03-27T19:52:19.768Z,71.34
2023-03-27T19:54:46.735Z,70.52
2023-03-27T19:57:13.726Z,71.04
2023-03-27T19:59:40.349Z,70.56
2023-03-27T20:02:06.922Z,71.23
2023-03-27T20:04:33.388Z,71.45
2023-03-27T20:07:01.689Z,70.98
2023-03-27T20:09:28.336Z,71.96
2023-03-27T20:11:55.080Z,71.59
2023-03-27T20:14:21.574Z,71.75
2023-03-27T20:16:48.232Z,72.19
2023-03-27T20:19:16.701Z,72.48
2023-03-27T20:21:43.512Z,72.88
2023-03-27T20:24:12.255Z,72.51
2023-03-27T20:26:40.291Z,72.58
2023-03-27T20:29:16.221Z,72.50
2023-03-27T20:31:43.097Z,72.13
2023-03-27T20:34:10.243Z,71.67
2023-03-27T20:36:38.973Z,72.96
2023-03-27T20:39:07.518Z,72.53
2023-03-27T20:41:38.700Z,72.33
2023-03-27T20:44:17.932Z,73.42
2023-03-27T20:46:47.364Z,73.20
2023-03-27T20:49:37.568Z,73.42
2023-03-27T20:52:08.749Z,73.06
2023-03-27T20:54:35.301Z,73.62
2023-03-27T20:57:02.732Z,73.26
2023-03-27T20:59:30.620Z,72.62
2023-03-27T21:01:59.354Z,72.60
2023-03-27T21:04:28.002Z,73.58
2023-03-27T21:06:55.023Z,72.96
2023-03-27T21:09:22.479Z,73.66
2023-03-27T21:11:49.085Z,73.58
2023-03-27T21:14:15.903Z,73.14
2023-03-27T21:16:43.066Z,73.46
2023-03-27T21:19:10.687Z,72.82
2023-03-27T21:21:37.363Z,73.04
2023-03-27T21:24:04.015Z,74.03
2023-03-27T21:26:30.559Z,73.36
2023-03-27T21:28:56.997Z,73.71
2023-03-27T21:31:23.526Z,73.84
2023-03-27T21:33:50.020Z,73.60
2023-03-27T21:36:16.594Z,73.92
2023-03-27T21:38:43.221Z,74.15
2023-03-27T21:41:13.478Z,74.04
2023-03-27T21:43:39.937Z,73.73
2023-03-27T21:46:06.878Z,73.28
2023-03-27T21:48:33.485Z,74.00
2023-03-27T21:51:05.302Z,73.90
2023-03-27T21:53:31.775Z,74.20
2023-03-27T21:55:58.763Z,74.49
2023-03-27T21:58:25.739Z,74.10
2023-03-27T22:00:54.898Z,73.26
2023-03-27T22:03:22.372Z,74.37
2023-03-27T22:06:01.157Z,74.26
2023-03-27T22:08:39.143Z,74.73
2023-03-27T22:11:05.985Z,74.70
2023-03-27T22:13:36.068Z,74.58
2023-03-27T22:16:14.498Z,74.14
2023-03-27T22:18:41.414Z,74.69
2023-03-27T22:21:26.296Z,75.08
2023-03-27T22:23:54.865Z,75.04
2023-03-27T22:26:24.681Z,75.22
2023-03-27T22:28:54.189Z,74.92
2023-03-27T22:31:21.429Z,75.35
2023-03-27T22:33:48.583Z,75.22
2023-03-27T22:36:15.743Z,75.05
2023-03-27T22:38:43.185Z,75.40
2023-03-27T22:41:12.112Z,75.31
2023-03-27T22:43:39.310Z,76.17
2023-03-27T22:46:14.237Z,75.20
2023-03-27T22:48:41.094Z,76.19
2023-03-27T22:51:08.558Z,75.44
2023-03-27T22:53:35.765Z,75.72
2023-03-27T22:56:03.274Z,76.33
2023-03-27T22:58:31.289Z,75.92
2023-03-27T23:00:58.132Z,76.29
2023-03-27T23:03:26.656Z,77.29
2023-03-27T23:05:54.518Z,76.41
2023-03-27T23:08:24.099Z,77.03
2023-03-27T23:10:56.101Z,76.45
2023-03-27T23:13:23.313Z,76.11
2023-03-27T23:15:51.759Z,77.90
2023-03-27T23:18:23.721Z,77.14
2023-03-27T23:21:01.895Z,78.46
2023-03-27T23:23:30.201Z,77.87
2023-03-27T23:26:00.050Z,77.55
2023-03-27T23:28:30.412Z,77.20
2023-03-27T23:31:00.213Z,77.42
2023-03-27T23:33:28.049Z,78.20
2023-03-27T23:36:04.727Z,78.11
2023-03-27T23:38:31.591Z,78.32
2023-03-27T23:40:59.580Z,78.03
2023-03-27T23:43:27.644Z,78.22
2023-03-27T23:45:55.828Z,77.98
2023-03-27T23:48:23.321Z,78.34
2023-03-27T23:50:49.995Z,79.51
2023-03-27T23:53:16.978Z,78.75
2023-03-27T23:55:43.482Z,78.38
2023-03-27T23:58:10.129Z,78.21
